Terminal Aerodrome Forecast
Issued by NWS

Home | Current Version | Previous Version | Text Only | Print | Product List | Glossary On
Versions: 1 2 3 4 5 6 7 8 9 10 11 12 13 14 15 16 17 18 19 20 21
000
FTUS46 KMTR 242324
TAFMRY
TAF
KMRY 242324Z 2500/2524 26009KT P6SM FEW007 FEW200
     FM250300 VRB04KT 6SM BR OVC005
     FM251700 VRB03KT P6SM BKN015
     FM251900 29008KT P6SM FEW010 FEW200=

USA.gov is the U.S. government's official web portal to all federal, state and local government web resources and services.